sensor_id;sensor_type;location;lat;lon;timestamp;pressure;altitude;pressure_sealevel;temperature
70831;BMP180;58451;51.550;7.208;2022-09-02T00:01:39;101068.20;;;15.10
70831;BMP180;58451;51.550;7.208;2022-09-02T00:04:20;101073.60;;;15.10
70831;BMP180;58451;51.550;7.208;2022-09-02T00:06:50;101076.40;;;15.00
70831;BMP180;58451;51.550;7.208;2022-09-02T00:09:22;101075.60;;;15.00
70831;BMP180;58451;51.550;7.208;2022-09-02T00:11:53;101073.60;;;14.90
70831;BMP180;58451;51.550;7.208;2022-09-02T00:14:33;101072.60;;;14.90
70831;BMP180;58451;51.550;7.208;2022-09-02T00:17:01;101068.60;;;14.80
70831;BMP180;58451;51.550;7.208;2022-09-02T00:19:30;101063.20;;;14.80
70831;BMP180;58451;51.550;7.208;2022-09-02T00:21:59;101062.00;;;14.70
70831;BMP180;58451;51.550;7.208;2022-09-02T00:24:26;101059.80;;;14.70
70831;BMP180;58451;51.550;7.208;2022-09-02T00:26:53;101057.60;;;14.70
70831;BMP180;58451;51.550;7.208;2022-09-02T00:29:25;101057.40;;;14.60
70831;BMP180;58451;51.550;7.208;2022-09-02T00:31:52;101058.00;;;14.60
70831;BMP180;58451;51.550;7.208;2022-09-02T00:34:19;101054.00;;;14.60
70831;BMP180;58451;51.550;7.208;2022-09-02T00:36:46;101048.20;;;14.54
70831;BMP180;58451;51.550;7.208;2022-09-02T00:39:13;101049.00;;;14.50
70831;BMP180;58451;51.550;7.208;2022-09-02T00:41:42;101047.80;;;14.50
70831;BMP180;58451;51.550;7.208;2022-09-02T00:44:14;101050.40;;;14.40
70831;BMP180;58451;51.550;7.208;2022-09-02T00:46:42;101042.40;;;14.40
70831;BMP180;58451;51.550;7.208;2022-09-02T00:49:27;101051.00;;;14.30
70831;BMP180;58451;51.550;7.208;2022-09-02T00:54:29;101044.60;;;14.30
70831;BMP180;58451;51.550;7.208;2022-09-02T00:56:57;101043.40;;;14.20
70831;BMP180;58451;51.550;7.208;2022-09-02T01:02:32;101039.40;;;14.10
70831;BMP180;58451;51.550;7.208;2022-09-02T01:05:00;101042.00;;;14.10
70831;BMP180;58451;51.550;7.208;2022-09-02T01:07:33;101041.80;;;14.02
70831;BMP180;58451;51.550;7.208;2022-09-02T01:10:04;101034.40;;;14.00
70831;BMP180;58451;51.550;7.208;2022-09-02T01:12:32;101036.40;;;14.00
70831;BMP180;58451;51.550;7.208;2022-09-02T01:14:59;101037.80;;;13.90
70831;BMP180;58451;51.550;7.208;2022-09-02T01:17:27;101035.20;;;13.90
70831;BMP180;58451;51.550;7.208;2022-09-02T01:20:00;101032.40;;;13.90
70831;BMP180;58451;51.550;7.208;2022-09-02T01:22:31;101031.60;;;13.80
70831;BMP180;58451;51.550;7.208;2022-09-02T01:25:08;101026.80;;;13.80
70831;BMP180;58451;51.550;7.208;2022-09-02T01:27:36;101034.00;;;13.72
70831;BMP180;58451;51.550;7.208;2022-09-02T01:30:07;101032.20;;;13.70
70831;BMP180;58451;51.550;7.208;2022-09-02T01:32:34;101025.20;;;13.70
70831;BMP180;58451;51.550;7.208;2022-09-02T01:35:01;101030.60;;;13.70
70831;BMP180;58451;51.550;7.208;2022-09-02T01:37:27;101029.20;;;13.60
70831;BMP180;58451;51.550;7.208;2022-09-02T01:39:54;101027.00;;;13.60
70831;BMP180;58451;51.550;7.208;2022-09-02T01:42:23;101023.20;;;13.60
70831;BMP180;58451;51.550;7.208;2022-09-02T01:44:52;101020.80;;;13.60
70831;BMP180;58451;51.550;7.208;2022-09-02T01:47:23;101020.40;;;13.60
70831;BMP180;58451;51.550;7.208;2022-09-02T01:49:51;101021.00;;;13.60
70831;BMP180;58451;51.550;7.208;2022-09-02T01:52:21;101019.00;;;13.60
70831;BMP180;58451;51.550;7.208;2022-09-02T01:54:49;101018.60;;;13.60
70831;BMP180;58451;51.550;7.208;2022-09-02T01:57:17;101017.00;;;13.60
70831;BMP180;58451;51.550;7.208;2022-09-02T01:59:44;101013.80;;;13.60
70831;BMP180;58451;51.550;7.208;2022-09-02T02:02:13;101010.40;;;13.60
70831;BMP180;58451;51.550;7.208;2022-09-02T02:04:40;101011.60;;;13.60
70831;BMP180;58451;51.550;7.208;2022-09-02T02:07:07;101009.20;;;13.60
70831;BMP180;58451;51.550;7.208;2022-09-02T02:09:34;101011.60;;;13.60
70831;BMP180;58451;51.550;7.208;2022-09-02T02:12:03;101013.00;;;13.60
70831;BMP180;58451;51.550;7.208;2022-09-02T02:14:31;101011.80;;;13.60
70831;BMP180;58451;51.550;7.208;2022-09-02T02:16:58;101012.20;;;13.60
70831;BMP180;58451;51.550;7.208;2022-09-02T02:19:26;101008.80;;;13.60
70831;BMP180;58451;51.550;7.208;2022-09-02T02:21:53;101009.80;;;13.60
70831;BMP180;58451;51.550;7.208;2022-09-02T02:24:21;101008.60;;;13.58
70831;BMP180;58451;51.550;7.208;2022-09-02T02:26:48;101007.20;;;13.50
70831;BMP180;58451;51.550;7.208;2022-09-02T02:29:16;101003.00;;;13.50
70831;BMP180;58451;51.550;7.208;2022-09-02T02:31:43;101000.60;;;13.50
70831;BMP180;58451;51.550;7.208;2022-09-02T02:34:11;101004.20;;;13.50
70831;BMP180;58451;51.550;7.208;2022-09-02T02:36:39;101004.60;;;13.50
70831;BMP180;58451;51.550;7.208;2022-09-02T02:39:09;101001.80;;;13.40
70831;BMP180;58451;51.550;7.208;2022-09-02T02:41:39;101000.40;;;13.40
70831;BMP180;58451;51.550;7.208;2022-09-02T02:44:10;101003.80;;;13.40
70831;BMP180;58451;51.550;7.208;2022-09-02T02:46:38;101003.80;;;13.34
70831;BMP180;58451;51.550;7.208;2022-09-02T02:49:05;101003.40;;;13.30
70831;BMP180;58451;51.550;7.208;2022-09-02T02:51:33;101001.60;;;13.30
70831;BMP180;58451;51.550;7.208;2022-09-02T02:54:02;101003.00;;;13.28
70831;BMP180;58451;51.550;7.208;2022-09-02T02:56:30;101002.00;;;13.20
70831;BMP180;58451;51.550;7.208;2022-09-02T02:58:59;101002.60;;;13.20
70831;BMP180;58451;51.550;7.208;2022-09-02T03:01:30;101004.40;;;13.20
70831;BMP180;58451;51.550;7.208;2022-09-02T03:03:58;101002.80;;;13.16
70831;BMP180;58451;51.550;7.208;2022-09-02T03:06:26;101001.60;;;13.12
70831;BMP180;58451;51.550;7.208;2022-09-02T03:08:53;100999.80;;;13.10
70831;BMP180;58451;51.550;7.208;2022-09-02T03:11:20;100992.60;;;13.10
70831;BMP180;58451;51.550;7.208;2022-09-02T03:13:50;100998.00;;;13.10
70831;BMP180;58451;51.550;7.208;2022-09-02T03:16:17;100995.20;;;13.08
70831;BMP180;58451;51.550;7.208;2022-09-02T03:18:47;100993.40;;;13.00
70831;BMP180;58451;51.550;7.208;2022-09-02T03:21:16;100989.80;;;13.00
70831;BMP180;58451;51.550;7.208;2022-09-02T03:23:45;100985.60;;;13.00
70831;BMP180;58451;51.550;7.208;2022-09-02T03:26:17;100984.80;;;13.00
70831;BMP180;58451;51.550;7.208;2022-09-02T03:28:47;100984.80;;;13.00
70831;BMP180;58451;51.550;7.208;2022-09-02T03:31:19;100987.60;;;12.92
70831;BMP180;58451;51.550;7.208;2022-09-02T03:33:46;100988.80;;;12.90
70831;BMP180;58451;51.550;7.208;2022-09-02T03:36:32;100989.40;;;12.90
70831;BMP180;58451;51.550;7.208;2022-09-02T03:39:00;100985.40;;;12.90
70831;BMP180;58451;51.550;7.208;2022-09-02T03:41:28;100988.00;;;12.90
70831;BMP180;58451;51.550;7.208;2022-09-02T03:43:55;100984.00;;;12.90
70831;BMP180;58451;51.550;7.208;2022-09-02T03:46:24;100987.60;;;12.90
70831;BMP180;58451;51.550;7.208;2022-09-02T03:48:51;100985.60;;;12.88
70831;BMP180;58451;51.550;7.208;2022-09-02T03:51:21;100982.00;;;12.88
70831;BMP180;58451;51.550;7.208;2022-09-02T03:53:50;100980.20;;;12.90
70831;BMP180;58451;51.550;7.208;2022-09-02T03:56:17;100983.20;;;12.90
70831;BMP180;58451;51.550;7.208;2022-09-02T03:58:48;100982.20;;;12.90
70831;BMP180;58451;51.550;7.208;2022-09-02T04:01:20;100974.20;;;12.90
70831;BMP180;58451;51.550;7.208;2022-09-02T04:03:49;100972.60;;;12.90
70831;BMP180;58451;51.550;7.208;2022-09-02T04:06:19;100978.00;;;12.90
70831;BMP180;58451;51.550;7.208;2022-09-02T04:08:47;100970.80;;;12.90
70831;BMP180;58451;51.550;7.208;2022-09-02T04:11:19;100974.60;;;12.90
70831;BMP180;58451;51.550;7.208;2022-09-02T04:13:51;100974.00;;;12.92
70831;BMP180;58451;51.550;7.208;2022-09-02T04:20:46;100970.60;;;13.00
70831;BMP180;58451;51.550;7.208;2022-09-02T04:23:32;100970.80;;;13.00
70831;BMP180;58451;51.550;7.208;2022-09-02T04:26:08;100966.80;;;13.00
70831;BMP180;58451;51.550;7.208;2022-09-02T04:28:36;100967.20;;;13.00
70831;BMP180;58451;51.550;7.208;2022-09-02T04:31:10;100961.60;;;13.00
70831;BMP180;58451;51.550;7.208;2022-09-02T04:33:38;100962.60;;;13.00
70831;BMP180;58451;51.550;7.208;2022-09-02T04:36:12;100961.20;;;13.00
70831;BMP180;58451;51.550;7.208;2022-09-02T04:38:42;100960.40;;;13.00
70831;BMP180;58451;51.550;7.208;2022-09-02T04:41:17;100956.60;;;13.10
70831;BMP180;58451;51.550;7.208;2022-09-02T04:43:45;100958.80;;;13.10
70831;BMP180;58451;51.550;7.208;2022-09-02T04:46:14;100956.20;;;13.10
70831;BMP180;58451;51.550;7.208;2022-09-02T04:48:44;100956.80;;;13.20
70831;BMP180;58451;51.550;7.208;2022-09-02T04:51:21;100958.80;;;13.20
70831;BMP180;58451;51.550;7.208;2022-09-02T04:53:51;100961.40;;;13.24
70831;BMP180;58451;51.550;7.208;2022-09-02T04:56:27;100960.00;;;13.30
70831;BMP180;58451;51.550;7.208;2022-09-02T04:58:55;100963.80;;;13.30
70831;BMP180;58451;51.550;7.208;2022-09-02T05:01:28;100962.60;;;13.40
70831;BMP180;58451;51.550;7.208;2022-09-02T05:03:59;100965.20;;;13.40
70831;BMP180;58451;51.550;7.208;2022-09-02T05:06:33;100966.80;;;13.40
70831;BMP180;58451;51.550;7.208;2022-09-02T05:09:01;100964.00;;;13.48
70831;BMP180;58451;51.550;7.208;2022-09-02T05:11:31;100964.20;;;13.50
70831;BMP180;58451;51.550;7.208;2022-09-02T05:14:04;100967.40;;;13.50
70831;BMP180;58451;51.550;7.208;2022-09-02T05:16:36;100962.40;;;13.58
70831;BMP180;58451;51.550;7.208;2022-09-02T05:19:07;100963.40;;;13.60
70831;BMP180;58451;51.550;7.208;2022-09-02T05:21:44;100958.00;;;13.70
70831;BMP180;58451;51.550;7.208;2022-09-02T05:24:33;100962.80;;;13.70
70831;BMP180;58451;51.550;7.208;2022-09-02T05:27:03;100964.00;;;13.80
70831;BMP180;58451;51.550;7.208;2022-09-02T05:29:31;100964.00;;;13.88
70831;BMP180;58451;51.550;7.208;2022-09-02T05:31:58;100962.20;;;13.90
70831;BMP180;58451;51.550;7.208;2022-09-02T05:34:26;100964.40;;;14.00
70831;BMP180;58451;51.550;7.208;2022-09-02T05:36:56;100967.80;;;14.00
70831;BMP180;58451;51.550;7.208;2022-09-02T05:39:25;100969.80;;;14.10
70831;BMP180;58451;51.550;7.208;2022-09-02T05:41:52;100969.60;;;14.10
70831;BMP180;58451;51.550;7.208;2022-09-02T05:44:19;100969.40;;;14.20
70831;BMP180;58451;51.550;7.208;2022-09-02T05:46:47;100967.20;;;14.24
70831;BMP180;58451;51.550;7.208;2022-09-02T05:49:15;100965.80;;;14.30
70831;BMP180;58451;51.550;7.208;2022-09-02T05:51:59;100963.20;;;14.40
70831;BMP180;58451;51.550;7.208;2022-09-02T05:54:36;100965.00;;;14.48
70831;BMP180;58451;51.550;7.208;2022-09-02T05:57:13;100961.60;;;14.50
70831;BMP180;58451;51.550;7.208;2022-09-02T05:59:44;100966.40;;;14.60
70831;BMP180;58451;51.550;7.208;2022-09-02T06:02:16;100959.40;;;14.66
70831;BMP180;58451;51.550;7.208;2022-09-02T06:04:47;100959.20;;;14.70
70831;BMP180;58451;51.550;7.208;2022-09-02T06:07:17;100956.40;;;14.80
70831;BMP180;58451;51.550;7.208;2022-09-02T06:09:46;100958.40;;;14.88
70831;BMP180;58451;51.550;7.208;2022-09-02T06:12:15;100957.40;;;14.90
70831;BMP180;58451;51.550;7.208;2022-09-02T06:14:45;100960.40;;;15.00
70831;BMP180;58451;51.550;7.208;2022-09-02T06:17:13;100958.40;;;15.06
70831;BMP180;58451;51.550;7.208;2022-09-02T06:19:48;100960.80;;;15.10
70831;BMP180;58451;51.550;7.208;2022-09-02T06:22:21;100963.40;;;15.20
70831;BMP180;58451;51.550;7.208;2022-09-02T06:24:48;100959.80;;;15.30
70831;BMP180;58451;51.550;7.208;2022-09-02T06:27:19;100960.80;;;15.40
70831;BMP180;58451;51.550;7.208;2022-09-02T06:29:48;100961.00;;;15.40
70831;BMP180;58451;51.550;7.208;2022-09-02T06:32:18;100962.60;;;15.50
70831;BMP180;58451;51.550;7.208;2022-09-02T06:34:46;100959.20;;;15.50
70831;BMP180;58451;51.550;7.208;2022-09-02T06:37:14;100960.20;;;15.58
70831;BMP180;58451;51.550;7.208;2022-09-02T06:39:42;100958.20;;;15.60
70831;BMP180;58451;51.550;7.208;2022-09-02T06:42:13;100961.00;;;15.60
70831;BMP180;58451;51.550;7.208;2022-09-02T06:44:58;100962.80;;;15.70
70831;BMP180;58451;51.550;7.208;2022-09-02T06:47:26;100960.00;;;15.70
70831;BMP180;58451;51.550;7.208;2022-09-02T06:49:53;100962.40;;;15.78
70831;BMP180;58451;51.550;7.208;2022-09-02T06:52:20;100960.60;;;15.80
70831;BMP180;58451;51.550;7.208;2022-09-02T06:54:47;100954.60;;;15.90
70831;BMP180;58451;51.550;7.208;2022-09-02T06:57:17;100960.80;;;16.00
70831;BMP180;58451;51.550;7.208;2022-09-02T06:59:44;100964.40;;;16.10
70831;BMP180;58451;51.550;7.208;2022-09-02T07:02:13;100963.80;;;16.20
70831;BMP180;58451;51.550;7.208;2022-09-02T07:04:41;100960.60;;;16.22
70831;BMP180;58451;51.550;7.208;2022-09-02T07:07:27;100958.00;;;16.30
70831;BMP180;58451;51.550;7.208;2022-09-02T07:09:59;100959.20;;;16.40
70831;BMP180;58451;51.550;7.208;2022-09-02T07:12:27;100962.20;;;16.40
70831;BMP180;58451;51.550;7.208;2022-09-02T07:15:05;100957.00;;;16.50
70831;BMP180;58451;51.550;7.208;2022-09-02T07:17:35;100961.20;;;16.60
70831;BMP180;58451;51.550;7.208;2022-09-02T07:20:07;100960.80;;;16.70
70831;BMP180;58451;51.550;7.208;2022-09-02T07:22:38;100960.00;;;16.80
70831;BMP180;58451;51.550;7.208;2022-09-02T07:25:08;100958.40;;;16.94
70831;BMP180;58451;51.550;7.208;2022-09-02T07:27:36;100949.20;;;17.10
70831;BMP180;58451;51.550;7.208;2022-09-02T07:30:11;100952.00;;;17.20
70831;BMP180;58451;51.550;7.208;2022-09-02T07:32:39;100953.20;;;17.30
70831;BMP180;58451;51.550;7.208;2022-09-02T07:35:08;100950.80;;;17.40
70831;BMP180;58451;51.550;7.208;2022-09-02T07:37:35;100955.20;;;17.60
70831;BMP180;58451;51.550;7.208;2022-09-02T07:40:06;100950.40;;;17.70
70831;BMP180;58451;51.550;7.208;2022-09-02T07:42:36;100957.20;;;17.90
70831;BMP180;58451;51.550;7.208;2022-09-02T07:45:04;100953.00;;;18.10
70831;BMP180;58451;51.550;7.208;2022-09-02T07:47:32;100946.00;;;18.30
70831;BMP180;58451;51.550;7.208;2022-09-02T07:50:01;100947.40;;;18.66
70831;BMP180;58451;51.550;7.208;2022-09-02T07:52:54;100947.40;;;19.08
70831;BMP180;58451;51.550;7.208;2022-09-02T07:55:24;100945.00;;;19.44
70831;BMP180;58451;51.550;7.208;2022-09-02T07:57:52;100942.00;;;19.80
70831;BMP180;58451;51.550;7.208;2022-09-02T08:00:21;100940.20;;;20.10
70831;BMP180;58451;51.550;7.208;2022-09-02T08:02:49;100945.60;;;20.30
70831;BMP180;58451;51.550;7.208;2022-09-02T08:05:21;100941.80;;;20.30
70831;BMP180;58451;51.550;7.208;2022-09-02T08:07:49;100945.00;;;20.20
70831;BMP180;58451;51.550;7.208;2022-09-02T08:10:16;100944.80;;;20.00
70831;BMP180;58451;51.550;7.208;2022-09-02T08:12:43;100944.80;;;19.80
70831;BMP180;58451;51.550;7.208;2022-09-02T08:15:14;100941.00;;;19.70
70831;BMP180;58451;51.550;7.208;2022-09-02T08:17:42;100944.40;;;19.50
70831;BMP180;58451;51.550;7.208;2022-09-02T08:20:12;100947.80;;;19.50
70831;BMP180;58451;51.550;7.208;2022-09-02T08:22:40;100944.20;;;19.52
70831;BMP180;58451;51.550;7.208;2022-09-02T08:25:08;100944.60;;;19.60
70831;BMP180;58451;51.550;7.208;2022-09-02T08:27:38;100945.80;;;19.70
70831;BMP180;58451;51.550;7.208;2022-09-02T08:30:07;100946.00;;;19.94
70831;BMP180;58451;51.550;7.208;2022-09-02T08:32:39;100946.80;;;20.26
70831;BMP180;58451;51.550;7.208;2022-09-02T08:35:08;100947.80;;;20.50
70831;BMP180;58451;51.550;7.208;2022-09-02T08:37:37;100943.20;;;20.80
70831;BMP180;58451;51.550;7.208;2022-09-02T08:40:18;100946.60;;;20.94
70831;BMP180;58451;51.550;7.208;2022-09-02T08:42:55;100944.80;;;21.04
70831;BMP180;58451;51.550;7.208;2022-09-02T08:45:36;100948.00;;;21.10
70831;BMP180;58451;51.550;7.208;2022-09-02T08:48:18;100943.80;;;21.30
70831;BMP180;58451;51.550;7.208;2022-09-02T08:50:56;100947.40;;;21.50
70831;BMP180;58451;51.550;7.208;2022-09-02T08:53:33;100943.60;;;21.60
70831;BMP180;58451;51.550;7.208;2022-09-02T08:56:05;100941.60;;;21.80
70831;BMP180;58451;51.550;7.208;2022-09-02T08:58:40;100937.00;;;21.90
70831;BMP180;58451;51.550;7.208;2022-09-02T09:02:29;100941.40;;;21.80
70831;BMP180;58451;51.550;7.208;2022-09-02T09:15:44;100930.60;;;22.40
70831;BMP180;58451;51.550;7.208;2022-09-02T09:18:22;100922.60;;;22.50
70831;BMP180;58451;51.550;7.208;2022-09-02T09:20:51;100921.60;;;22.58
70831;BMP180;58451;51.550;7.208;2022-09-02T09:23:32;100920.80;;;22.70
70831;BMP180;58451;51.550;7.208;2022-09-02T09:26:17;100917.00;;;22.80
70831;BMP180;58451;51.550;7.208;2022-09-02T09:28:49;100915.80;;;22.90
70831;BMP180;58451;51.550;7.208;2022-09-02T09:31:27;100912.80;;;23.10
70831;BMP180;58451;51.550;7.208;2022-09-02T09:34:07;100916.00;;;23.30
70831;BMP180;58451;51.550;7.208;2022-09-02T09:41:59;100905.60;;;23.78
70831;BMP180;58451;51.550;7.208;2022-09-02T09:47:09;100900.00;;;23.90
70831;BMP180;58451;51.550;7.208;2022-09-02T09:49:43;100896.80;;;24.10
70831;BMP180;58451;51.550;7.208;2022-09-02T09:52:10;100897.60;;;24.28
70831;BMP180;58451;51.550;7.208;2022-09-02T09:54:37;100895.20;;;24.30
70831;BMP180;58451;51.550;7.208;2022-09-02T09:57:20;100893.00;;;24.50
70831;BMP180;58451;51.550;7.208;2022-09-02T09:59:48;100894.40;;;24.46
70831;BMP180;58451;51.550;7.208;2022-09-02T10:02:24;100894.60;;;24.40
70831;BMP180;58451;51.550;7.208;2022-09-02T10:05:08;100891.00;;;24.50
70831;BMP180;58451;51.550;7.208;2022-09-02T10:07:41;100885.20;;;24.68
70831;BMP180;58451;51.550;7.208;2022-09-02T10:10:17;100885.80;;;24.80
70831;BMP180;58451;51.550;7.208;2022-09-02T10:12:47;100881.40;;;24.98
70831;BMP180;58451;51.550;7.208;2022-09-02T10:15:28;100890.40;;;25.10
70831;BMP180;58451;51.550;7.208;2022-09-02T10:18:10;100884.60;;;25.26
70831;BMP180;58451;51.550;7.208;2022-09-02T10:26:50;100883.40;;;25.90
70831;BMP180;58451;51.550;7.208;2022-09-02T10:29:43;100879.80;;;25.90
70831;BMP180;58451;51.550;7.208;2022-09-02T10:38:39;100868.40;;;26.00
70831;BMP180;58451;51.550;7.208;2022-09-02T10:41:40;100868.00;;;25.90
70831;BMP180;58451;51.550;7.208;2022-09-02T10:55:57;100852.80;;;26.74
70831;BMP180;58451;51.550;7.208;2022-09-02T10:58:57;100855.00;;;26.66
70831;BMP180;58451;51.550;7.208;2022-09-02T11:01:39;100856.80;;;26.56
70831;BMP180;58451;51.550;7.208;2022-09-02T11:04:18;100855.60;;;26.28
70831;BMP180;58451;51.550;7.208;2022-09-02T11:06:55;100852.20;;;26.18
70831;BMP180;58451;51.550;7.208;2022-09-02T11:09:52;100858.00;;;26.20
70831;BMP180;58451;51.550;7.208;2022-09-02T11:12:30;100848.40;;;26.20
70831;BMP180;58451;51.550;7.208;2022-09-02T11:30:19;100826.20;;;27.70
70831;BMP180;58451;51.550;7.208;2022-09-02T11:35:32;100821.60;;;27.80
70831;BMP180;58451;51.550;7.208;2022-09-02T11:38:30;100815.60;;;28.08
70831;BMP180;58451;51.550;7.208;2022-09-02T11:50:14;100814.80;;;28.50
70831;BMP180;58451;51.550;7.208;2022-09-02T11:56:39;100809.60;;;28.40
70831;BMP180;58451;51.550;7.208;2022-09-02T11:58:50;100803.40;;;28.40
70831;BMP180;58451;51.550;7.208;2022-09-02T12:01:34;100803.80;;;28.30
70831;BMP180;58451;51.550;7.208;2022-09-02T12:09:54;100794.80;;;27.92
70831;BMP180;58451;51.550;7.208;2022-09-02T12:23:09;100783.80;;;28.00
70831;BMP180;58451;51.550;7.208;2022-09-02T12:25:46;100779.40;;;27.90
70831;BMP180;58451;51.550;7.208;2022-09-02T12:28:22;100781.00;;;28.00
70831;BMP180;58451;51.550;7.208;2022-09-02T12:33:40;100775.80;;;28.00
70831;BMP180;58451;51.550;7.208;2022-09-02T12:36:09;100776.00;;;28.20
70831;BMP180;58451;51.550;7.208;2022-09-02T12:58:43;100747.80;;;29.10
70831;BMP180;58451;51.550;7.208;2022-09-02T13:01:36;100760.00;;;29.10
70831;BMP180;58451;51.550;7.208;2022-09-02T13:32:09;100735.40;;;28.80
70831;BMP180;58451;51.550;7.208;2022-09-02T13:34:41;100730.60;;;28.80
70831;BMP180;58451;51.550;7.208;2022-09-02T13:40:42;100736.00;;;28.80
70831;BMP180;58451;51.550;7.208;2022-09-02T13:45:41;100733.00;;;28.60
70831;BMP180;58451;51.550;7.208;2022-09-02T13:48:30;100726.60;;;28.50
70831;BMP180;58451;51.550;7.208;2022-09-02T13:51:13;100716.20;;;28.60
70831;BMP180;58451;51.550;7.208;2022-09-02T13:53:45;100719.60;;;28.78
70831;BMP180;58451;51.550;7.208;2022-09-02T13:56:36;100713.20;;;28.80
70831;BMP180;58451;51.550;7.208;2022-09-02T13:59:03;100712.00;;;28.80
70831;BMP180;58451;51.550;7.208;2022-09-02T14:01:36;100710.40;;;28.70
70831;BMP180;58451;51.550;7.208;2022-09-02T14:04:10;100705.80;;;28.90
70831;BMP180;58451;51.550;7.208;2022-09-02T14:06:45;100705.40;;;28.88
70831;BMP180;58451;51.550;7.208;2022-09-02T14:09:21;100706.00;;;28.90
70831;BMP180;58451;51.550;7.208;2022-09-02T14:11:52;100709.20;;;29.20
70831;BMP180;58451;51.550;7.208;2022-09-02T14:14:23;100700.40;;;29.56
70831;BMP180;58451;51.550;7.208;2022-09-02T14:16:51;100691.00;;;30.34
70831;BMP180;58451;51.550;7.208;2022-09-02T14:21:52;100682.20;;;31.70
70831;BMP180;58451;51.550;7.208;2022-09-02T14:24:28;100678.40;;;32.38
70831;BMP180;58451;51.550;7.208;2022-09-02T14:26:58;100676.80;;;32.80
70831;BMP180;58451;51.550;7.208;2022-09-02T14:29:29;100669.20;;;33.00
70831;BMP180;58451;51.550;7.208;2022-09-02T14:32:22;100664.40;;;33.34
70831;BMP180;58451;51.550;7.208;2022-09-02T14:37:52;100657.00;;;33.50
70831;BMP180;58451;51.550;7.208;2022-09-02T14:40:41;100654.00;;;33.54
70831;BMP180;58451;51.550;7.208;2022-09-02T14:43:15;100645.60;;;34.10
70831;BMP180;58451;51.550;7.208;2022-09-02T14:45:48;100639.20;;;34.30
70831;BMP180;58451;51.550;7.208;2022-09-02T14:48:21;100667.60;;;33.88
70831;BMP180;58451;51.550;7.208;2022-09-02T14:50:59;100681.80;;;32.58
70831;BMP180;58451;51.550;7.208;2022-09-02T14:53:29;100676.20;;;31.82
70831;BMP180;58451;51.550;7.208;2022-09-02T14:55:57;100640.60;;;31.70
70831;BMP180;58451;51.550;7.208;2022-09-02T14:58:27;100669.20;;;32.20
70831;BMP180;58451;51.550;7.208;2022-09-02T15:00:58;100637.00;;;31.90
70831;BMP180;58451;51.550;7.208;2022-09-02T15:03:28;100627.00;;;32.66
70831;BMP180;58451;51.550;7.208;2022-09-02T15:05:56;100632.80;;;34.00
70831;BMP180;58451;51.550;7.208;2022-09-02T15:08:23;100636.80;;;35.10
70831;BMP180;58451;51.550;7.208;2022-09-02T15:10:52;100625.00;;;35.92
70831;BMP180;58451;51.550;7.208;2022-09-02T15:13:31;100622.80;;;37.02
70831;BMP180;58451;51.550;7.208;2022-09-02T15:16:01;100620.60;;;37.30
70831;BMP180;58451;51.550;7.208;2022-09-02T15:18:28;100624.60;;;37.68
70831;BMP180;58451;51.550;7.208;2022-09-02T15:20:55;100616.40;;;37.86
70831;BMP180;58451;51.550;7.208;2022-09-02T15:23:23;100627.60;;;37.86
70831;BMP180;58451;51.550;7.208;2022-09-02T15:25:52;100622.00;;;38.46
70831;BMP180;58451;51.550;7.208;2022-09-02T15:28:19;100623.60;;;39.04
70831;BMP180;58451;51.550;7.208;2022-09-02T15:30:46;100622.40;;;39.50
70831;BMP180;58451;51.550;7.208;2022-09-02T15:33:13;100621.40;;;39.46
70831;BMP180;58451;51.550;7.208;2022-09-02T15:35:43;100623.20;;;39.78
70831;BMP180;58451;51.550;7.208;2022-09-02T15:38:12;100616.40;;;40.30
70831;BMP180;58451;51.550;7.208;2022-09-02T15:40:39;100614.60;;;40.20
70831;BMP180;58451;51.550;7.208;2022-09-02T15:43:06;100610.00;;;40.50
70831;BMP180;58451;51.550;7.208;2022-09-02T15:45:33;100611.00;;;40.60
70831;BMP180;58451;51.550;7.208;2022-09-02T15:48:00;100611.40;;;40.70
70831;BMP180;58451;51.550;7.208;2022-09-02T15:50:30;100609.40;;;41.10
70831;BMP180;58451;51.550;7.208;2022-09-02T15:53:00;100609.00;;;41.80
70831;BMP180;58451;51.550;7.208;2022-09-02T15:55:31;100610.20;;;41.66
70831;BMP180;58451;51.550;7.208;2022-09-02T15:57:59;100609.40;;;41.88
70831;BMP180;58451;51.550;7.208;2022-09-02T16:00:26;100613.80;;;41.50
70831;BMP180;58451;51.550;7.208;2022-09-02T16:02:54;100611.40;;;41.30
70831;BMP180;58451;51.550;7.208;2022-09-02T16:05:23;100617.00;;;41.68
70831;BMP180;58451;51.550;7.208;2022-09-02T16:07:50;100615.40;;;42.16
70831;BMP180;58451;51.550;7.208;2022-09-02T16:10:21;100635.80;;;41.70
70831;BMP180;58451;51.550;7.208;2022-09-02T16:12:48;100628.60;;;40.38
70831;BMP180;58451;51.550;7.208;2022-09-02T16:15:15;100626.40;;;39.66
70831;BMP180;58451;51.550;7.208;2022-09-02T16:17:42;100627.80;;;38.84
70831;BMP180;58451;51.550;7.208;2022-09-02T16:20:09;100628.40;;;38.00
70831;BMP180;58451;51.550;7.208;2022-09-02T16:22:36;100634.40;;;37.26
70831;BMP180;58451;51.550;7.208;2022-09-02T16:25:03;100633.60;;;36.32
70831;BMP180;58451;51.550;7.208;2022-09-02T16:27:31;100632.00;;;35.58
70831;BMP180;58451;51.550;7.208;2022-09-02T16:30:18;100634.80;;;34.48
70831;BMP180;58451;51.550;7.208;2022-09-02T16:32:45;100624.40;;;33.82
70831;BMP180;58451;51.550;7.208;2022-09-02T16:35:13;100626.80;;;33.14
70831;BMP180;58451;51.550;7.208;2022-09-02T16:37:41;100624.40;;;32.46
70831;BMP180;58451;51.550;7.208;2022-09-02T16:40:09;100620.20;;;32.20
70831;BMP180;58451;51.550;7.208;2022-09-02T16:42:37;100617.20;;;32.08
70831;BMP180;58451;51.550;7.208;2022-09-02T16:45:05;100611.80;;;31.90
70831;BMP180;58451;51.550;7.208;2022-09-02T16:47:32;100610.80;;;31.78
70831;BMP180;58451;51.550;7.208;2022-09-02T16:49:59;100615.40;;;31.68
70831;BMP180;58451;51.550;7.208;2022-09-02T16:52:26;100606.60;;;31.80
70831;BMP180;58451;51.550;7.208;2022-09-02T16:54:53;100608.80;;;31.90
70831;BMP180;58451;51.550;7.208;2022-09-02T16:57:20;100610.60;;;32.00
70831;BMP180;58451;51.550;7.208;2022-09-02T16:59:47;100609.40;;;31.86
70831;BMP180;58451;51.550;7.208;2022-09-02T17:02:14;100610.00;;;31.56
70831;BMP180;58451;51.550;7.208;2022-09-02T17:04:41;100616.20;;;31.00